Tiempo atmosférico en la estación meteorológica de Castellón de la Plana, Almazora, Castelló/Castellón (35 m.)

Fecha
DESCASC
Temp. máxima en grados centígrados (hora)
DESCASC
Temp. mínima en grados centígrados (hora)
DESCASC
Temp. media en grados centígrados
DESCASC
Racha de viento máxima en m/sg (hora)
DESCASC
Velocidad máxima media en intervalos de 10 minutos(hora)
DESCASC
Precipitaciones diarias en mm
DESCASC
Precipitaciones de 00:00 a 06:00 en mm
DESCASC
Precipitaciones de 06:00 a 12:00 en mm
DESCASC
Precipitaciones de 12:00 a 18:00 en mm
DESCASC
Precipitaciones de 18:00 a 24:00 en mm
DESCASC

Gráficas

Temp. máximas Temp. mínimas Temp. medias Precipitaciones Rachas de viento máximas Velocidades máximas media en intervalos de 10 minutos

Datos horarios

Fecha y hora oficial Temperatura (ºC) Velocidad del viento (km/h) Dirección del viento Racha (km/h) Dirección de racha Precipitación (mm) Presión (hPa) Tendencia (hPa) Humedad (%)
2017-11-23 23:00:00 12.4 5 Noroeste 13 Oeste 0 1013.4 0.6 76
2017-11-23 22:00:00 11.8 7 Noroeste 12 Oeste 0 1013.6 1.2 78
2017-11-23 21:00:00 12.5 4 Noroeste 9 Oeste 0 1013.1 1.3 76
2017-11-23 20:00:00 13.4 4 Noroeste 8 Noroeste 0 1012.8 1.4 77
2017-11-23 19:00:00 14.6 3 Noroeste 7 Noroeste 0 1012.4 1.5 76
2017-11-23 18:00:00 15.9 3 Nordeste 9 Nordeste 0 1011.8 0.7 69
2017-11-23 17:00:00 17.4 4 Nordeste 12 Este 0 1011.4 0.1 62
2017-11-23 16:00:00 18 7 Sudeste 13 Sudeste 0 1010.9 -1.2 59
2017-11-23 15:00:00 18.8 6 Sudeste 13 Sudeste 0 1011.1 -1.7 55
2017-11-23 14:00:00 19.7 7 Sudeste 12 Sudeste 0 1011.3 -1.8 50
2017-11-23 13:00:00 19.4 5 Sur 9 Este 0 1012.1 -0.5 56
2017-11-23 12:00:00 17.7 6 Sudeste 11 Este 0 1012.8 1 71
2017-11-23 11:00:00 15.7 3 Sur 7 Oeste 0 1013.1 1.8 84
2017-11-23 10:00:00 12.6 3 Noroeste 10 Noroeste 0 1012.6 1.8 78
2017-11-23 09:00:00 10.2 6 Noroeste 15 Oeste 0 1011.8 1.5 74
2017-11-23 08:00:00 8.8 8 Oeste 17 Noroeste 0 1011.3 1.2 84
2017-11-23 07:00:00 8.6 10 Oeste 15 Oeste 0 1010.8 1 83
2017-11-23 06:00:00 8.9 9 Oeste 16 Oeste 0 1010.3 0.5 80
2017-11-23 05:00:00 8.6 12 Oeste 17 Oeste 0 1010.1 0.6 81
2017-11-23 04:00:00 8.9 10 Oeste 19 Oeste 0 1009.8 0.1 80
2017-11-23 03:00:00 8.8 13 Oeste 17 Oeste 0 1009.8 0.1 81
2017-11-23 02:00:00 9.5 11 Oeste 17 Oeste 0 1009.5 -0.1 77
2017-11-23 01:00:00 9.3 10 Oeste 19 Oeste 0 1009.7 0.1 82
2017-11-23 00:00:00 10 11 Oeste 19 Oeste 0 1009.7 0.3 82
2017-11-22 23:00:00 10.4 9 Noroeste 19 Noroeste 0 1009.6 0.1 79
2017-11-22 22:00:00 10.4 9 Oeste 17 Noroeste 0 1009.6 0.1 82
2017-11-22 21:00:00 10.8 10 Oeste 14 Oeste 0 1009.4 0.1 85
2017-11-22 20:00:00 11.8 5 Noroeste 9 Noroeste 0 1009.5 0.4 84
2017-11-22 19:00:00 13.2 4 Noroeste 8 Noroeste 0 1009.5 -- 85
2017-11-22 18:00:00 14.5 3 Nordeste 8 Este 0 1009.3 0.2 81
2017-11-22 17:00:00 15.8 -- -- -- -- 0 1009.1 -0.7 76
2017-11-22 16:00:00 17.2 -- -- 12 Sur 0 -- -- 62
2017-11-22 15:00:00 17.7 7 Sur 13 Sur 0 1009.1 -2.3 46
2017-11-22 14:00:00 17.9 8 Sudeste 15 Este 0 1009.8 -2.1 53
2017-11-22 13:00:00 18.4 6 Sudeste 12 Sudeste 0 1010.4 -1.4 50
2017-11-22 12:00:00 17 4 Sur 10 Sur 0 1011.4 -0.2 58
2017-11-22 11:00:00 13.6 3 Este 9 Oeste 0 1011.9 0.4 73
2017-11-22 10:00:00 10.6 9 Oeste 17 Oeste 0 1011.8 0.3 64
2017-11-22 09:00:00 8.2 10 Oeste 17 Oeste 0 1011.6 0 66
2017-11-22 08:00:00 7.7 12 Oeste 18 Oeste 0 1011.5 -0.2 71
2017-11-22 07:00:00 7.9 10 Oeste 16 Oeste 0 1011.5 -0.7 71
2017-11-22 06:00:00 8.2 10 Oeste 19 Oeste 0 1011.6 -0.9 75
2017-11-22 05:00:00 8.2 12 Oeste 15 Oeste 0 1011.7 -1.1 80
2017-11-22 04:00:00 8.5 10 Noroeste 18 Oeste 0 1012.2 -1.4 80
2017-11-22 03:00:00 8.5 12 Oeste 17 Noroeste 0 1012.5 -1.4 85
2017-11-22 02:00:00 8.9 11 Oeste 16 Oeste 0 1012.8 -1.2 88
2017-11-22 01:00:00 9.5 6 Noroeste 15 Noroeste 0 1013.6 -0.6 86
2017-11-22 00:00:00 10.3 10 Oeste 17 Oeste 0 1013.9 -0.4 85
2017-11-21 23:00:00 10.7 8 Oeste 17 Oeste 0 1014 -0.6 86
2017-11-21 22:00:00 10.9 8 Oeste 13 Oeste 0 1014.2 -0.4 89
2017-11-21 21:00:00 11.4 6 Oeste 10 Oeste 0 1014.3 -0.4 89
2017-11-21 20:00:00 12.4 4 Noroeste 8 Oeste 0 1014.6 0.1 86
2017-11-21 19:00:00 13.7 0 Calma 4 Noroeste 0 1014.6 0.3 86
2017-11-21 18:00:00 15.1 2 Sudeste 10 Sudeste 0 1014.7 0.3 83
2017-11-21 17:00:00 16.4 7 Este 13 Sudeste 0 1014.5 -0.2 79
2017-11-21 16:00:00 17.3 8 Sudeste 17 Sudeste 0 1014.3 -0.8 72
2017-11-21 15:00:00 18 8 Sudeste 16 Este 0 1014.4 -1.4 65
2017-11-21 14:00:00 19.1 8 Sudeste 16 Sudeste 0 1014.7 -1.6 55
2017-11-21 13:00:00 19.6 4 Sudeste 10 Este 0 1015.1 -1.6 44
2017-11-21 12:00:00 18.2 2 Oeste 6 Norte 0 1015.8 -0.8 57
2017-11-21 11:00:00 14.9 5 Noroeste 13 Oeste 0 1016.3 0.2 64
2017-11-21 10:00:00 11.1 8 Oeste 14 Oeste 0 1016.7 0.9 67
2017-11-21 09:00:00 8.9 10 Oeste 17 Oeste 0 1016.6 0.8 76
2017-11-21 08:00:00 8.3 13 Oeste 17 Oeste 0 1016.1 0.1 80
2017-11-21 07:00:00 8.2 10 Oeste 17 Noroeste 0 1015.8 -0.2 82
2017-11-21 06:00:00 8.2 11 Oeste 18 Noroeste 0 1015.8 -0.4 87
2017-11-21 05:00:00 8.7 11 Oeste 18 Oeste 0 1016 -0.3 87
2017-11-21 04:00:00 9.3 9 Noroeste 17 Oeste 0 1016 -0.6 88
2017-11-21 03:00:00 9.4 8 Oeste 15 Oeste 0 1016.2 -0.8 90
2017-11-21 02:00:00 10.1 8 Oeste 16 Noroeste 0 1016.3 -1.1 91
2017-11-21 01:00:00 10.1 8 Noroeste 15 Oeste 0 1016.6 -0.9 92
2017-11-21 00:00:00 10.7 9 Oeste 17 Oeste 0 1017 -0.6 85
2017-11-20 23:00:00 11 9 Oeste 16 Noroeste 0 1017.4 0.1 90
2017-11-20 22:00:00 11.4 8 Oeste 12 Noroeste 0 1017.5 0.7 91
2017-11-20 21:00:00 11.7 7 Oeste 11 Oeste 0 1017.6 1.2 89
2017-11-20 20:00:00 12.8 4 Noroeste 7 Noroeste 0 1017.3 1.2 86
2017-11-20 19:00:00 14 0 Calma 5 Sudeste 0 1016.8 0.6 86
2017-11-20 18:00:00 15.1 2 Sudeste 10 Sudeste 0 1016.4 0.2 82
2017-11-20 17:00:00 16.7 6 Sudeste 16 Sur 0 1016.1 -0.7 75
2017-11-20 16:00:00 17.9 9 Sur 16 Sur 0 1016.2 -1.3 68
2017-11-20 15:00:00 18.6 8 Sur 15 Sur 0 1016.2 -1.7 65
2017-11-20 14:00:00 19.2 9 Sudeste 18 Sudeste 0 1016.8 -1.4 61
2017-11-20 13:00:00 19.1 8 Sudeste 15 Sur 0 1017.5 -0.4 60
2017-11-20 12:00:00 17.5 4 Sudeste 8 Este 0 1017.9 0.4 56
2017-11-20 11:00:00 14.3 3 Oeste 12 Noroeste 0 1018.2 0.8 54
2017-11-20 10:00:00 11 8 Oeste 15 Oeste 0 1017.9 0.7 61
2017-11-20 09:00:00 8.9 10 Oeste 19 Noroeste 0 1017.5 0.4 69
2017-11-20 08:00:00 8.4 12 Noroeste 22 Oeste 0 1017.4 0.4 66
2017-11-20 07:00:00 8.8 13 Oeste 21 Oeste 0 1017.2 0.4 67
2017-11-20 06:00:00 8.7 14 Oeste 21 Oeste 0 1017.1 0.1 78
2017-11-20 05:00:00 9.1 12 Oeste 19 Oeste 0 1017 0.3 83
2017-11-20 04:00:00 9.1 13 Oeste 22 Oeste 0 1016.8 -0.3 84
2017-11-20 03:00:00 9.5 10 Oeste 18 Oeste 0 1017 -0.3 83
2017-11-20 02:00:00 9.8 9 Oeste 15 Noroeste 0 1016.7 -0.3 87
2017-11-20 01:00:00 9.9 10 Oeste 17 Noroeste 0 1017.1 0.4 89
2017-11-20 00:00:00 10.3 7 Noroeste 13 Oeste 0 1017.3 0.6 90
2017-11-19 23:00:00 10.8 8 Oeste 13 Noroeste 0 1017 0.7 90
2017-11-19 22:00:00 11.1 8 Oeste 12 Oeste 0 1016.7 0.9 90
2017-11-19 21:00:00 11.5 9 Oeste 11 Noroeste 0 1016.7 1.4 89
2017-11-19 20:00:00 12.3 5 Noroeste 8 Noroeste 0 1016.3 1.3 85
2017-11-19 19:00:00 13.7 0 Calma 2 Norte 0 1015.8 1.2 85
2017-11-19 18:00:00 15.1 0 Calma 10 Sur 0 1015.3 0.9 80
2017-11-19 17:00:00 16.7 6 Sur 14 Sur 0 1015 0.2 73
2017-11-19 16:00:00 17.6 7 Sudeste 16 Este 0 1014.6 -0.7 68
2017-11-19 15:00:00 18.4 8 Sudeste 19 Este 0 1014.4 -1.6 63
2017-11-19 14:00:00 19.1 9 Sur 16 Sur 0 1014.8 -1.5 60
2017-11-19 13:00:00 19.4 9 Sur 15 Sur 0 1015.3 -1 50
2017-11-19 12:00:00 18 3 Sudeste 10 Este 0 1016 -0.1 51
2017-11-19 11:00:00 15.1 0 Calma 15 Noroeste 0 1016.3 0.4 59
2017-11-19 10:00:00 12.1 9 Noroeste 21 Oeste 0 1016.3 0.9 56
2017-11-19 09:00:00 9.2 13 Oeste 21 Oeste 0 1016.1 1 65
2017-11-19 08:00:00 8.7 12 Oeste 20 Noroeste 0 1015.9 1 70
2017-11-19 07:00:00 8.7 13 Noroeste 22 Noroeste 0 1015.4 0.6 70
2017-11-19 06:00:00 9.1 14 Oeste 22 Oeste 0 1015.1 0 72
2017-11-19 05:00:00 9.6 14 Oeste 22 Noroeste 0 1014.9 -0.3 73
2017-11-19 04:00:00 9.6 13 Noroeste 20 Oeste 0 1014.8 -0.9 78
2017-11-19 03:00:00 9.6 13 Noroeste 21 Oeste 0 1015.1 -0.8 77
2017-11-19 02:00:00 9.8 13 Oeste 20 Oeste 0 1015.2 -0.9 83
2017-11-19 01:00:00 10.1 9 Noroeste 23 Noroeste 0 1015.7 -0.3 83
2017-11-19 00:00:00 10.8 11 Oeste 19 Oeste 0 1015.9 0.2 83
2017-11-18 23:00:00 10.9 9 Oeste 15 Noroeste 0 1016.1 0.8 85
2017-11-18 22:00:00 11.3 10 Oeste 14 Noroeste 0 1016 1 86
2017-11-18 21:00:00 11.9 8 Oeste 12 Noroeste 0 1015.7 1.2 85
2017-11-18 20:00:00 12.9 4 Noroeste 7 Oeste 0 1015.3 1.3 81
2017-11-18 19:00:00 14.8 2 Noroeste 7 Nordeste 0 1015 1.4 78
2017-11-18 18:00:00 15.8 5 Nordeste 10 Nordeste 0 1014.5 1 74
2017-11-18 17:00:00 17.2 5 Este 20 Este 0 1014 0.3 69
2017-11-18 16:00:00 17.9 6 Este 15 Este 0 1013.6 -0.4 65
2017-11-18 15:00:00 18.4 9 Este 20 Sudeste 0 1013.5 -1 53
2017-11-18 14:00:00 19 9 Este 19 Este 0 1013.7 -0.9 47
2017-11-18 13:00:00 19.5 8 Este 17 Este 0 1014 -0.2 47
2017-11-18 12:00:00 18.8 7 Este 18 Este 0 1014.5 0.4 47
2017-11-18 11:00:00 16.9 6 Nordeste 12 Este 0 1014.6 0.8 42
2017-11-18 10:00:00 13.2 9 Oeste 16 Oeste 0 1014.2 0.7 46
2017-11-18 09:00:00 9.9 12 Oeste 18 Oeste 0 1014.1 1 55
2017-11-18 08:00:00 8.7 12 Oeste 17 Noroeste 0 1013.8 0.7 59
2017-11-18 07:00:00 9.2 12 Oeste 20 Oeste 0 1013.5 0.3 57
2017-11-18 06:00:00 9.4 12 Oeste 20 Oeste 0 1013.1 -0.3 57
2017-11-18 05:00:00 9.3 13 Oeste 19 Noroeste 0 1013.1 -0.5 61
2017-11-18 04:00:00 9.5 10 Oeste 22 Oeste 0 1013.2 -0.8 64
2017-11-18 03:00:00 10 12 Oeste 19 Oeste 0 1013.4 -0.8 64
2017-11-18 02:00:00 10.6 14 Oeste 21 Oeste 0 1013.6 -0.5 65
2017-11-18 01:00:00 10.4 13 Oeste 18 Noroeste 0 1014 0.2 69
2017-11-18 00:00:00 10.8 8 Oeste 14 Oeste 0 1014.2 0.7 69
2017-11-17 23:00:00 11 9 Oeste 15 Oeste 0 1014.1 0.7 69
2017-11-17 22:00:00 11.1 11 Oeste 15 Oeste 0 1013.8 0.4 70
2017-11-17 21:00:00 11.5 8 Oeste 14 Oeste 0 1013.5 0.3 73
2017-11-17 20:00:00 12.2 5 Noroeste 9 Oeste 0 1013.4 0.4 73
2017-11-17 19:00:00 13.7 2 Oeste 4 Sudoeste 0 1013.4 0.3 77
2017-11-17 18:00:00 15.2 3 Sur 10 Sur 0 1013.2 -0.2 72
2017-11-17 17:00:00 17 6 Sur 14 Sudeste 0 1013 -1 63
2017-11-17 16:00:00 18.1 9 Sur 15 Sur 0 1013.1 -1.5 55
2017-11-17 15:00:00 18.5 9 Sur 17 Sur 0 1013.4 -1.7 51
2017-11-17 14:00:00 19.2 8 Sur 16 Sudeste 0 1014 -1.3 55
2017-11-17 13:00:00 19.6 9 Sur 15 Sur 0 1014.6 -0.6 53
2017-11-17 12:00:00 18.4 6 Este 12 Este 0 1015.1 0.1 41
2017-11-17 11:00:00 15.2 2 Sudeste 16 Noroeste 0 1015.3 0.7 52
2017-11-17 10:00:00 11.8 8 Oeste 15 Noroeste 0 1015.2 1 50
2017-11-17 09:00:00 9.4 9 Oeste 22 Noroeste 0 1015 0.8 59
2017-11-17 08:00:00 8.8 10 Oeste 19 Oeste 0 1014.6 0.3 64
2017-11-17 07:00:00 8.2 13 Oeste 23 Oeste 0 1014.2 -0.4 69
2017-11-17 06:00:00 8.5 15 Oeste 21 Oeste 0 1014.2 -0.6 69
2017-11-17 05:00:00 8.1 10 Noroeste 19 Oeste 0 1014.3 -0.6 77
2017-11-17 04:00:00 8.3 13 Oeste 17 Noroeste 0 1014.6 -0.7 83
2017-11-17 03:00:00 8.7 7 Oeste 18 Noroeste 0 1014.8 -0.5 85
2017-11-17 02:00:00 9.2 12 Oeste 17 Noroeste 0 1014.9 -0.4 84
2017-11-17 01:00:00 9.6 8 Noroeste 15 Oeste 0 1015.3 0 83
2017-11-17 00:00:00 9.9 10 Oeste 17 Noroeste 0 1015.3 0.2 87
2017-11-16 23:00:00 10.3 7 Noroeste 17 Noroeste 0 1015.3 0.4 84
2017-11-16 22:00:00 10.9 9 Oeste 15 Oeste 0 1015.3 0.8 85
2017-11-16 21:00:00 11.7 8 Oeste 11 Oeste 0 1015.1 0.9 84
2017-11-16 20:00:00 12.6 7 Oeste 11 Oeste 0 1014.9 0.8 82
2017-11-16 19:00:00 14.2 2 Noroeste 5 Noroeste 0 1014.5 0.5 79
2017-11-16 18:00:00 15.1 2 Nordeste 11 Este 0 1014.2 0.2 76
2017-11-16 17:00:00 16.3 6 Este 13 Este 0 1014.1 -0.2 69
2017-11-16 16:00:00 17.1 9 Este 17 Este 0 1014 -0.7 64
2017-11-16 15:00:00 17.4 7 Sudeste 16 Este 0 1014 -1.4 56
2017-11-16 14:00:00 17.6 8 Sudeste 18 Sudeste 0 1014.3 -1.1 49
2017-11-16 13:00:00 18 8 Este 15 Este 0 1014.7 -0.4 45
2017-11-16 12:00:00 17.4 3 Este 9 Sur 0 1015.4 0.4 43
2017-11-16 11:00:00 14.5 6 Oeste 13 Oeste 0 1015.4 1 50
2017-11-16 10:00:00 10.5 9 Oeste 19 Oeste 0 1015.1 1.3 47
2017-11-16 09:00:00 8 15 Oeste 22 Oeste 0 1015 1.6 55
2017-11-16 08:00:00 7.1 13 Noroeste 19 Noroeste 0 1014.4 1.2 59
2017-11-16 07:00:00 7.3 11 Oeste 18 Noroeste 0 1013.8 0.6 62
2017-11-16 06:00:00 7.3 12 Oeste 17 Oeste 0 1013.4 -0.1 61
2017-11-16 05:00:00 7.4 13 Oeste 21 Oeste 0 1013.2 -0.3 64
2017-11-16 04:00:00 7.8 13 Oeste 19 Oeste 0 1013.2 -0.6 61
2017-11-16 03:00:00 8.1 9 Oeste 19 Oeste 0 1013.5 -0.5 65
2017-11-16 02:00:00 8.3 14 Oeste 20 Oeste 0 1013.5 -0.6 64
2017-11-16 01:00:00 8.5 12 Oeste 18 Oeste 0 1013.8 -0.1 61
2017-11-16 00:00:00 8.6 8 Oeste 16 Oeste 0 1014 0.4 64
2017-11-15 23:00:00 9.1 12 Oeste 17 Oeste 0 1014.1 1.1 61
2017-11-15 22:00:00 9.5 9 Oeste 14 Oeste 0 1013.9 1.3 59
2017-11-15 21:00:00 9.9 7 Oeste 11 Oeste 0 1013.6 1.3 61
2017-11-15 20:00:00 11.2 6 Oeste 9 Oeste 0 1013 0.9 56
2017-11-15 19:00:00 12.9 2 Noroeste 4 Nordeste 0 1012.6 0.6 50
2017-11-15 18:00:00 14.3 2 Nordeste 7 Nordeste 0 1012.3 0.2 44
2017-11-15 17:00:00 15.2 4 Nordeste 9 Este 0 1012.1 -0.5 37
2017-11-15 16:00:00 15.8 5 Este 14 Sudeste 0 1012 -1.3 34
2017-11-15 15:00:00 16.2 8 Este 18 Este 0 1012.1 -2.1 28
2017-11-15 14:00:00 16.6 8 Este 15 Sudeste 0 1012.6 -2.1 20
2017-11-15 13:00:00 16.6 8 Este 16 Este 0 1013.3 -1.4 25
2017-11-15 12:00:00 15.6 6 Este 14 Sudeste 0 1014.2 -0.2 24
2017-11-15 11:00:00 13.9 4 Este 9 Sudeste 0 1014.7 0.6 30
2017-11-15 10:00:00 10.2 4 Noroeste 19 Noroeste 0 1014.7 1.1 34
2017-11-15 09:00:00 7.4 13 Oeste 20 Oeste 0 1014.4 0.9 39
2017-11-15 08:00:00 5.9 11 Oeste 24 Oeste 0 1014.1 0.2 47
2017-11-15 07:00:00 5.9 12 Oeste 24 Oeste 0 1013.6 -0.8 49
2017-11-15 06:00:00 5.9 14 Oeste 20 Oeste 0 1013.5 -1.3 48
2017-11-15 05:00:00 6.2 14 Oeste 23 Noroeste 0 1013.9 -1 48
2017-11-15 04:00:00 6.9 13 Oeste 20 Oeste 0 1014.4 -0.8 45
2017-11-15 03:00:00 7.7 11 Noroeste 19 Noroeste 0 1014.8 -0.7 41
2017-11-15 02:00:00 7.5 11 Noroeste 21 Noroeste 0 1014.9 -0.8 47
2017-11-15 01:00:00 7.8 12 Noroeste 27 Oeste 0 1015.2 -0.3 46
2017-11-15 00:00:00 8.1 14 Oeste 21 Noroeste 0 1015.5 0.2 49
2017-11-14 23:00:00 8.6 10 Oeste 18 Noroeste 0 1015.7 0.9 48
2017-11-14 22:00:00 9.5 10 Noroeste 19 Oeste 0 1015.5 1.3 44
2017-11-14 21:00:00 9.6 8 Oeste 14 Oeste 0 1015.3 2 48
2017-11-14 20:00:00 10.7 4 Noroeste 7 Noroeste 0 1014.8 2.2 44
2017-11-14 19:00:00 11.9 0 Calma 6 Este 0 1014.2 1.9 38
2017-11-14 18:00:00 13.4 3 Este 12 Este 0 1013.3 1.1 34
2017-11-14 17:00:00 14.9 7 Sur 14 Sur 0 1012.6 0.2 31
2017-11-14 16:00:00 16 8 Sur 16 Sudeste 0 1012.3 -0.3 24
2017-11-14 15:00:00 16.8 8 Sur 16 Sur 0 1012.2 -0.8 20
2017-11-14 14:00:00 17.3 8 Sur 18 Este 0 1012.4 -0.9 19
2017-11-14 13:00:00 18.1 8 Sur 16 Sudeste 0 1012.6 -0.7 11
2017-11-14 12:00:00 16.2 5 Norte 14 Oeste 0 1013 -0.1 11
2017-11-14 11:00:00 14.2 9 Oeste 21 Noroeste 0 1013.3 0.9 16
2017-11-14 10:00:00 11.6 14 Oeste 22 Oeste 0 1013.3 1.7 21
2017-11-14 09:00:00 9 11 Oeste 23 Noroeste 0 1013.1 1.8 29
2017-11-14 08:00:00 8.9 15 Oeste 30 Oeste 0 1012.4 1.3 29
2017-11-14 07:00:00 9.1 17 Oeste 27 Oeste 0 1011.6 0.5 29
2017-11-14 06:00:00 9.3 14 Oeste 27 Oeste 0 1011.3 0 31
2017-11-14 05:00:00 9.3 16 Oeste 25 Oeste 0 1011.1 -0.3 31
2017-11-14 04:00:00 9.1 15 Oeste 25 Oeste 0 1011.1 -0.6 31
2017-11-14 03:00:00 8.8 14 Oeste 24 Oeste 0 1011.3 -0.5 32
2017-11-14 02:00:00 9 11 Noroeste 24 Oeste 0 1011.4 -0.3 31
2017-11-14 01:00:00 9.8 14 Noroeste 32 Noroeste 0 1011.7 0.2 28
2017-11-14 00:00:00 10.2 15 Oeste 25 Oeste 0 1011.8 0.6 26
2017-11-13 23:00:00 10.8 12 Noroeste 26 Noroeste 0 1011.7 0.4 24
2017-11-13 22:00:00 11.5 13 Oeste 26 Norte 0 1011.5 0.6 22
2017-11-13 21:00:00 12.3 11 Noroeste 30 Noroeste 0 1011.2 0.6 20
2017-11-13 20:00:00 12.7 14 Noroeste 31 Noroeste 0 1011.3 1.4 19
2017-11-13 19:00:00 13.2 11 Norte 32 Noroeste 0 1010.9 1.5 17
2017-11-13 18:00:00 14.1 13 Norte 40 Norte 0 1010.6 1.8 17
2017-11-13 17:00:00 15.6 15 Norte 32 Norte 0 1009.9 1.3 14
2017-11-13 16:00:00 16.8 18 Norte 41 Norte 0 1009.4 0.5 14
2017-11-13 15:00:00 17.5 18 Norte 36 Norte 0 1008.8 -0.6 12
2017-11-13 14:00:00 18 17 Norte 32 Norte 0 1008.6 -0.8 12
2017-11-13 13:00:00 17.5 21 Norte 44 Norte 0 1008.9 0.1 17
2017-11-13 12:00:00 17.2 18 Noroeste 64 Noroeste 0 1009.4 2.2 18
2017-11-13 11:00:00 16.9 23 Norte 54 Norte 0 1009.4 1.9 19
2017-11-13 10:00:00 16.4 14 Noroeste 33 Noroeste 0 1008.8 2.4 23
2017-11-13 09:00:00 16 19 Noroeste 47 Norte 0 1007.2 1.4 23
2017-11-13 08:00:00 15.7 24 Norte 53 Noroeste 0 1007.5 2.2 25
2017-11-13 07:00:00 15.8 11 Noroeste 38 Oeste 0 1006.4 0.8 34
2017-11-13 06:00:00 16.7 22 Noroeste 42 Oeste 0 1005.8 -0.4 36
2017-11-13 05:00:00 16.6 17 Oeste 28 Noroeste 0 1005.3 -1.5 38
2017-11-13 04:00:00 16.6 10 Oeste 23 Oeste 0 1005.6 -2.1 38
2017-11-13 03:00:00 14.1 6 Noroeste 15 Oeste 0 1006.2 -1.4 51
2017-11-13 02:00:00 15.9 7 Oeste 15 Oeste 0 1006.8 -0.9 44
2017-11-13 01:00:00 13.7 4 Sudoeste 8 Noroeste 0 1007.7 -0.4 52
2017-11-13 00:00:00 14.8 6 Noroeste 12 Noroeste 0 1007.6 -1.4 46
2017-11-12 23:00:00 15 6 Oeste 13 Oeste 0 1007.7 -1.8 44
2017-11-12 22:00:00 14.7 9 Sudoeste 13 Noroeste 0 1008.1 -1.1 44
2017-11-12 21:00:00 15.2 3 Norte 12 Norte 0 1009 -0.1 47
2017-11-12 20:00:00 16.3 7 Noroeste 13 Oeste 0 1009.5 0.5 51
2017-11-12 19:00:00 16.8 2 Noroeste 6 Noroeste 0 1009.2 0.2 47
2017-11-12 18:00:00 18.6 4 Norte 8 Sur 0 1009.1 -0.4 38
2017-11-12 17:00:00 20.2 4 Sudeste 12 Sur 0 1009 -1.1 35
2017-11-12 16:00:00 21.1 8 Sur 20 Sudoeste 0 1009 -2 34
2017-11-12 15:00:00 21.7 12 Sur 23 Sur 0 1009.5 -2.8 34
2017-11-12 14:00:00 22.6 11 Sur 22 Sudoeste 0 1010.1 -3.1 31
2017-11-12 13:00:00 23.5 6 Sudoeste 17 Sudoeste 0 1011 -2.7 24
2017-11-12 12:00:00 21.6 6 Sudoeste 17 Noroeste 0 1012.3 -1.6 27
2017-11-12 11:00:00 19 11 Oeste 23 Oeste 0 1013.2 -0.7 33
2017-11-12 10:00:00 16.1 8 Noroeste 19 Noroeste 0 1013.7 0 45
2017-11-12 09:00:00 13.3 9 Noroeste 18 Noroeste 0 1013.9 0 53
2017-11-12 08:00:00 11.7 10 Noroeste 18 Noroeste 0 1013.9 0.3 57
2017-11-12 07:00:00 11.4 8 Noroeste 19 Oeste 0 1013.7 0.1 57
2017-11-12 06:00:00 11.8 13 Oeste 19 Oeste 0 1013.9 -0.2 56
2017-11-12 05:00:00 12.4 11 Oeste 19 Oeste 0 1013.6 -0.8 55
2017-11-12 04:00:00 12.9 11 Oeste 18 Oeste 0 1013.6 -1.6 53
2017-11-12 03:00:00 13.4 12 Oeste 21 Oeste 0 1014.1 -1.7 53
2017-11-12 02:00:00 13.7 11 Oeste 18 Oeste 0 1014.4 -1.5 51
2017-11-12 01:00:00 14.2 8 Oeste 16 Oeste 0 1015.2 -1 51
2017-11-12 00:00:00 13.7 10 Oeste 15 Oeste 0 1015.8 -0.2 55
2017-11-11 23:00:00 13.2 4 Noroeste 8 Noroeste 0 1015.9 -0.2 59
2017-11-11 22:00:00 14.1 6 Noroeste 9 Noroeste 0 1016.2 0 56
2017-11-11 21:00:00 16.2 3 Oeste 10 Oeste 0 1016 0 49
2017-11-11 20:00:00 17.4 7 Oeste 11 Noroeste 0 1016.1 0.3 48
2017-11-11 19:00:00 17.8 4 Sudoeste 9 Sudeste 0 1016.2 0.7 56
2017-11-11 18:00:00 19.6 6 Sur 11 Sur 0 1016 0.4 46
2017-11-11 17:00:00 21.2 6 Sur 13 Sur 0 1015.8 -0.1 46
2017-11-11 16:00:00 22.2 8 Sur 21 Sur 0 1015.5 -1 39
2017-11-11 15:00:00 22.9 12 Sur 22 Este 0 1015.6 -1.6 34
2017-11-11 14:00:00 22.6 5 Sur 26 Norte 0 1015.9 -1.7 34
2017-11-11 13:00:00 22.8 14 Norte 28 Nordeste 0 1016.5 -1.4 25
2017-11-11 12:00:00 22.5 11 Norte 31 Noroeste 0 1017.2 -0.9 27
2017-11-11 11:00:00 21.1 14 Norte 30 Norte 0 1017.6 -0.2 30
2017-11-11 10:00:00 16.6 3 Sudoeste 15 Oeste 0 1017.9 0.4 43
2017-11-11 09:00:00 15.2 6 Noroeste 13 Oeste 0 1018.1 0.9 46
2017-11-11 08:00:00 13.8 3 Oeste 9 Noroeste 0 1017.8 0.3 51
2017-11-11 07:00:00 15.8 5 Norte 17 Oeste 0 1017.5 0 43
2017-11-11 06:00:00 15.3 9 Oeste 21 Oeste 0 1017.2 -1 45
2017-11-11 05:00:00 15 6 Oeste 17 Norte 0 1017.5 -0.7 46
2017-11-11 04:00:00 14.9 6 Noroeste 25 Nordeste 0 1017.5 -1.5 47
2017-11-11 03:00:00 11.5 0 Calma 14 Noroeste 0 1018.2 -0.9 62
2017-11-11 02:00:00 11.8 4 Noroeste 10 Oeste 0 1018.2 -1.1 60
2017-11-11 01:00:00 11.3 4 Noroeste 13 Oeste 0 1019 -0.6 60
2017-11-11 00:00:00 11.8 5 Noroeste 13 Norte 0 1019.1 -0.3 56
2017-11-10 23:00:00 11.4 6 Noroeste 14 Noroeste 0 1019.3 0.1 58
2017-11-10 22:00:00 11.9 4 Oeste 13 Noroeste 0 1019.6 0.4 58
2017-11-10 21:00:00 12.6 8 Noroeste 17 Oeste 0 1019.4 0.4 55
2017-11-10 20:00:00 13.3 6 Oeste 10 Oeste 0 1019.2 0.6 56
2017-11-10 19:00:00 14.2 3 Sudoeste 6 Sudoeste 0 1019.2 1 48
2017-11-10 18:00:00 15.5 2 Sur 8 Sur 0 1019 0.8 40
2017-11-10 17:00:00 16.8 6 Sur 13 Sur 0 1018.6 0.2 39
2017-11-10 16:00:00 18.2 8 Sur 16 Sur 0 1018.2 -0.6 33
2017-11-10 15:00:00 19 9 Sur 20 Sudeste 0 1018.2 -1.2 26
2017-11-10 14:00:00 19.4 11 Sudeste 20 Sudeste 0 1018.4 -1.5 23
2017-11-10 13:00:00 19.6 9 Nordeste -- -- -- 1018.8 -0.9 20
2017-11-10 12:00:00 18.4 5 Noroeste 19 Oeste 0 1019.4 -0.1 19
2017-11-10 11:00:00 15.5 12 Oeste 23 Oeste 0 1019.9 0.6 28
2017-11-10 10:00:00 13 14 Noroeste 26 Oeste 0 1019.7 0.6 35
2017-11-10 09:00:00 10.8 14 Oeste 25 Oeste 0 1019.5 0.3 44
2017-11-10 08:00:00 10.4 14 Oeste 21 Noroeste 0 1019.3 0.3 44
2017-11-10 07:00:00 10.4 13 Oeste 22 Oeste 0 1019.1 0.5 44
2017-11-10 06:00:00 10.5 12 Oeste 24 Noroeste 0 1019.2 0.5 43
2017-11-10 05:00:00 10.7 9 Noroeste 23 Noroeste 0 1019 0.4 43
2017-11-10 04:00:00 11 12 Oeste 20 Oeste 0 1018.6 0 42
2017-11-10 03:00:00 11.9 12 Noroeste 28 Noroeste 0 1018.7 0.5 39
2017-11-10 02:00:00 12.4 14 Noroeste 27 Noroeste 0 1018.6 0.6 38
2017-11-10 01:00:00 12.5 11 Oeste 22 Noroeste 0 1018.6 0.8 39
2017-11-10 00:00:00 12.9 10 Noroeste 20 Noroeste 0 1018.2 0.4 38
2017-11-09 23:00:00 13.2 10 Noroeste 27 Noroeste 0 1018 0.6 37
2017-11-09 22:00:00 13.4 10 Noroeste 22 Noroeste 0 1017.8 0.7 38
2017-11-09 21:00:00 13.9 7 Noroeste 30 Noroeste 0 1017.8 1.1 35
2017-11-09 20:00:00 13.9 9 Norte 17 Noroeste 0 1017.4 1.3 34
2017-11-09 19:00:00 14.9 8 Noroeste 17 Nordeste 0 1017.1 1.4 31
2017-11-09 18:00:00 14.9 4 Este 10 Sudoeste 0 1016.7 0.9 43
2017-11-09 17:00:00 16.2 8 Sur 17 Sur 0 1016.1 0.1 36
2017-11-09 16:00:00 17.4 9 Sur 23 Sur 0 1015.7 -0.8 35
2017-11-09 15:00:00 18.1 15 Sur 24 Sur 0 1015.8 -0.9 31
2017-11-09 14:00:00 18.3 9 Norte 26 Norte 0 1016 -1 20
2017-11-09 13:00:00 18.1 12 Norte 30 Nordeste 0 1016.5 -0.6 22
2017-11-09 12:00:00 17.2 14 Norte 35 Norte 0 1016.7 -0.5 25
2017-11-09 11:00:00 15.9 9 Norte 26 Norte 0 1017 0.6 30
2017-11-09 10:00:00 13.8 6 Norte 18 Noroeste 0 1017.1 0.8 34
2017-11-09 09:00:00 11.4 5 Oeste 18 Oeste 0 1017.2 0.9 42
2017-11-09 08:00:00 9.6 8 Oeste 13 Oeste 0 1016.4 0.3 47
2017-11-09 07:00:00 7.3 3 Norte 8 Norte 0 1016.3 0.5 56
2017-11-09 06:00:00 8.7 4 Noroeste 17 Noroeste 0 1016.3 0.2 48
2017-11-09 05:00:00 10 7 Oeste 24 Oeste 0 1016.1 0.1 41
2017-11-09 04:00:00 10.9 17 Oeste 27 Oeste 0 1015.8 -0.3 36
2017-11-09 03:00:00 11.1 7 Oeste 19 Noroeste 0 1016.1 0.4 37
2017-11-09 02:00:00 11.7 10 Oeste 22 Oeste 0 1016 0.4 36
2017-11-09 01:00:00 12.5 9 Oeste 18 Noroeste 0 1016.1 1.2 34
2017-11-09 00:00:00 13.4 8 Noroeste 22 Noroeste 0 1015.7 1 30
2017-11-08 23:00:00 14.1 6 Norte 16 Noroeste 0 1015.6 1.1 31
2017-11-08 22:00:00 14.9 7 Noroeste 19 Oeste 0 1014.9 0.7 28
2017-11-08 21:00:00 15.3 6 Noroeste 23 Oeste 0 1014.7 0.9 27
2017-11-08 20:00:00 15.8 10 Noroeste 21 Noroeste 0 1014.5 1 27
2017-11-08 19:00:00 16.6 6 Oeste 13 Sudoeste 0 1014.2 1.1 37
2017-11-08 18:00:00 17.3 4 Sur 10 Sur 0 1013.8 0.7 36
2017-11-08 17:00:00 18.2 4 Sudeste 15 Sur 0 1013.5 0 31
2017-11-08 16:00:00 18.5 11 Sur 20 Este 0 1013.1 -0.9 31
2017-11-08 15:00:00 19.6 10 Sudeste 21 Sudeste 0 1013.1 -1.6 30
2017-11-08 14:00:00 19.4 7 Este 22 Este 0 1013.5 -1.6 27
2017-11-08 13:00:00 19.8 6 Este 19 Sudoeste 0 1014 -1.1 27
2017-11-08 12:00:00 19.6 6 Oeste 19 Oeste 0 1014.7 -0.4 23
2017-11-08 11:00:00 17.6 5 Oeste 17 Sudoeste 0 1015.1 0.7 31
2017-11-08 10:00:00 14 9 Oeste 15 Oeste 0 1015.1 0.9 52
2017-11-08 09:00:00 11.2 9 Oeste 15 Oeste 0 1015.1 1.6 58
2017-11-08 08:00:00 11 8 Oeste 18 Oeste 0 1014.4 0.9 59
2017-11-08 07:00:00 10.5 10 Noroeste 18 Noroeste 0 1014.2 0.8 60
2017-11-08 06:00:00 10.6 9 Oeste 18 Oeste 0 1013.5 0.3 58
2017-11-08 05:00:00 11.1 11 Noroeste 19 Oeste 0 1013.5 0.4 52
2017-11-08 04:00:00 9.4 10 Noroeste 17 Noroeste 0 1013.4 0.5 56
2017-11-08 03:00:00 9.4 10 Noroeste 18 Noroeste 0 1013.2 0.6 55
2017-11-08 02:00:00 9.1 8 Noroeste 15 Oeste 0 1013.1 1.1 55
2017-11-08 01:00:00 9.4 8 Noroeste 17 Oeste 0 1012.9 0.9 55
2017-11-08 00:00:00 9.9 6 Oeste 17 Oeste 0 1012.6 0.7 54
2017-11-07 23:00:00 9.9 10 Oeste 15 Oeste 0 1012 0.1 56
2017-11-07 22:00:00 10.6 8 Oeste 17 Oeste 0 1012 0.5 52
2017-11-07 21:00:00 11.4 6 Oeste 12 Noroeste 0 1011.9 0.7 51
2017-11-07 20:00:00 11.8 5 Noroeste 9 Noroeste 0 1011.9 0.8 50
2017-11-07 19:00:00 13.5 2 Noroeste 6 Noroeste 0 1011.5 0.7 41
2017-11-07 18:00:00 14.9 0 Calma 14 Sudoeste 0 1011.2 0.5 36
2017-11-07 17:00:00 16.5 9 Sur 21 Sudeste 0 1011.1 0.1 29
2017-11-07 16:00:00 17.5 12 Sur 21 Sur 0 1010.8 -0.5 28
2017-11-07 15:00:00 17.9 10 Sur 22 Sur 0 1010.7 -1.4 22
2017-11-07 14:00:00 18.6 11 Sur 21 Sudeste 0 1011 -1.6 17
2017-11-07 13:00:00 18.7 6 Sudeste 17 Este 0 1011.3 -1.6 13
2017-11-07 12:00:00 16.8 4 Noroeste 17 Noroeste 0 1012.1 -0.6 10
2017-11-07 11:00:00 14 9 Noroeste 23 Oeste 0 1012.6 0.3 12
2017-11-07 10:00:00 11.8 14 Oeste 24 Oeste 0 1012.9 0.9 22
2017-11-07 09:00:00 10 8 Noroeste 20 Oeste 0 1012.7 1.1 26
2017-11-07 08:00:00 8.4 11 Oeste 25 Oeste 0 1012.3 1.2 34
2017-11-07 07:00:00 8.8 13 Oeste 21 Oeste 0 1012 0.3 36
2017-11-07 06:00:00 8.6 12 Oeste 20 Oeste 0 1011.6 -0.1 29
2017-11-07 05:00:00 8.8 9 Oeste 15 Oeste 0 1011.1 -0.8 33
2017-11-07 04:00:00 9.6 4 Oeste 14 Oeste 0 1011.7 -0.4 34
2017-11-07 03:00:00 10.8 5 Noroeste 23 Noroeste 0 1011.7 -0.6 23
2017-11-07 02:00:00 9.9 5 Noroeste 11 Noroeste 0 1011.9 -0.4 37
2017-11-07 01:00:00 10.6 3 Noroeste 11 Noroeste 0 1012.1 0.3 40
2017-11-07 00:00:00 11.5 4 Noroeste 10 Noroeste 0 1012.3 0.7 37
2017-11-06 23:00:00 12.8 4 Sur 17 Norte 0 1012.3 0.7 30
2017-11-06 22:00:00 13.9 8 Noroeste 23 Oeste 0 1011.8 0.1 26
2017-11-06 21:00:00 14.4 8 Noroeste 42 Noroeste 0 1011.6 0.4 25
2017-11-06 20:00:00 15.3 11 Norte 38 Norte 0 1011.6 0.6 23
2017-11-06 19:00:00 16 16 Norte 33 Norte 0 1011.7 0.2 21
2017-11-06 18:00:00 16.7 12 Norte 29 Norte 0 1011.2 -0.6 20
2017-11-06 17:00:00 17.9 13 Noroeste 32 Noroeste 0 1011 -1.8 17
2017-11-06 16:00:00 18.2 15 Noroeste 33 Norte 0 1011.5 -1.9 16
2017-11-06 15:00:00 18.7 16 Norte 33 Noroeste 0 1011.8 -2.5 13
2017-11-06 14:00:00 19.1 15 Noroeste 38 Norte 0 1012.8 -2.1 15
2017-11-06 13:00:00 18.9 19 Norte 43 Norte 0 1013.4 -1.9 15
2017-11-06 12:00:00 18.3 18 Norte 39 Norte 0 1014.3 -1 18
2017-11-06 11:00:00 17.4 14 Noroeste 31 Noroeste 0 1014.9 -0.5 22
2017-11-06 10:00:00 15.8 16 Noroeste 36 Noroeste 0 1015.3 0.4 24
2017-11-06 09:00:00 13.8 10 Oeste 18 Oeste 0 1015.3 0.7 35
2017-11-06 08:00:00 12.2 6 Oeste 13 Noroeste 0 1015.4 0.8 42
2017-11-06 07:00:00 13.1 6 Noroeste 24 Oeste 0 1014.9 0.2 37
2017-11-06 06:00:00 13.7 14 Oeste 38 Nordeste 0 1014.6 0.1 37
2017-11-06 05:00:00 12.3 5 Norte 16 Norte 0 1014.6 0.2 49
2017-11-06 04:00:00 12.4 5 Noroeste 10 Noroeste 0 1014.7 -0.1 47
2017-11-06 03:00:00 12 5 Oeste 12 Oeste 0 1014.5 -0.5 48
2017-11-06 02:00:00 11.9 4 Oeste 10 Oeste 0 1014.4 -0.7 49
2017-11-06 01:00:00 13.3 5 Oeste 10 Sudoeste 0 1014.8 0.3 42
2017-11-06 00:00:00 14.2 2 Sudeste 8 Este 0 1015 1.1 38
2017-11-05 23:00:00 15.4 5 Norte 18 Norte 0 1015.1 1.7 33
2017-11-05 22:00:00 15.8 4 Norte 23 Noroeste 0 1014.5 1.7 34
2017-11-05 21:00:00 16.4 10 Norte 21 Norte 0 1013.9 1.9 31
2017-11-05 20:00:00 16.9 8 Noroeste 19 Noroeste 0 1013.4 2.2 28
2017-11-05 19:00:00 18 6 Noroeste 29 Norte 0 1012.8 2.2 24
2017-11-05 18:00:00 19.1 11 Noroeste 31 Noroeste 0 1012 2.1 21
2017-11-05 17:00:00 20.7 13 Norte 33 Norte 0 1011.2 1.2 18
2017-11-05 16:00:00 21.5 15 Norte 36 Norte 0 1010.6 0.6 14
2017-11-05 15:00:00 22.5 14 Noroeste 26 Noroeste 0 1009.9 -0.5 15
2017-11-05 14:00:00 22.9 7 Este 20 Norte 0 1010 -0.6 15
2017-11-05 13:00:00 23.2 8 Norte 24 Sudoeste 0 1010 -0.4 12
2017-11-05 12:00:00 22.8 7 Sudoeste 30 Norte 0 1010.4 0.3 29
2017-11-05 11:00:00 20.7 9 Noroeste 19 Oeste 0 1010.6 1.7 33
2017-11-05 10:00:00 18.9 7 Oeste 32 Nordeste 0 1010.4 2 40
2017-11-05 09:00:00 17.7 18 Norte 42 Norte 0 1010.1 2.1 40
2017-11-05 08:00:00 13.6 4 Noroeste 14 Noroeste 0 1008.9 1.1 69
2017-11-05 07:00:00 14.1 9 Oeste 15 Norte 0 1008.4 1 67
2017-11-05 06:00:00 14.5 7 Noroeste 14 Oeste 0 1008 0.9 66
2017-11-05 05:00:00 14.9 7 Noroeste 15 Oeste 0 1007.8 0.7 66
2017-11-05 04:00:00 14.8 6 Oeste 16 Oeste 0 1007.4 0.4 66
2017-11-05 03:00:00 14.7 8 Noroeste 15 Oeste 0 1007.1 0.5 65
2017-11-05 02:00:00 15.4 8 Noroeste 15 Oeste 0 1007.1 0.9 63
2017-11-05 01:00:00 16.1 10 Oeste 16 Noroeste 0 1007 1.4 60
2017-11-05 00:00:00 17.3 10 Oeste 15 Oeste 0 1006.6 1.3 56
2017-11-04 23:00:00 18 9 Noroeste 21 Sudoeste 0 1006.2 1.3 55
2017-11-04 22:00:00 18.8 10 Oeste 19 Oeste 0 1005.6 1.2 52
2017-11-04 21:00:00 18.4 9 Oeste 15 Oeste 0 1005.3 1.6 54
2017-11-04 20:00:00 18.9 9 Oeste 16 Oeste 0 1004.9 1.7 53
2017-11-04 19:00:00 19.3 9 Sudoeste 18 Sudoeste 0 1004.4 1.2 52
2017-11-04 18:00:00 20.8 7 Sudoeste 26 Sur 0 1003.7 0.3 51
2017-11-04 17:00:00 21.8 12 Sudoeste 25 Sudoeste 0 1003.2 -1.1 47
2017-11-04 16:00:00 22.8 11 Sudoeste 22 Sudoeste 0 1003.2 -1.9 44
2017-11-04 15:00:00 23.4 10 Sudoeste 23 Sudoeste 0 1003.4 -2.5 43
2017-11-04 14:00:00 22.7 9 Sur 17 Sudoeste 0 1004.3 -2.2 50
2017-11-04 13:00:00 22 2 Este 16 Sur 0 1005.1 -1.7 58
2017-11-04 12:00:00 22.1 11 Sur 19 Sur 0 1005.9 -0.6 63
2017-11-04 11:00:00 21.2 9 Sur 17 Sur 0 1006.5 0.8 69
2017-11-04 10:00:00 18 4 Noroeste 10 Noroeste 0 1006.8 1.3 76
2017-11-04 09:00:00 16.1 9 Oeste 16 Oeste 0 1006.5 0.7 84
2017-11-04 08:00:00 15.1 8 Oeste 14 Oeste 0 1005.7 -0.1 90
2017-11-04 07:00:00 15.5 8 Oeste 13 Oeste 0 1005.5 -0.8 90
2017-11-04 06:00:00 15.9 6 Oeste 13 Noroeste 0 1005.8 -0.8 88
2017-11-04 05:00:00 16.5 3 Noroeste 11 Noroeste 0 1005.8 -0.6 88
2017-11-04 04:00:00 16.2 8 Oeste 12 Oeste 0 1006.3 -0.7 87
2017-11-04 03:00:00 16.1 9 Oeste 15 Oeste 0 1006.6 -0.9 89
2017-11-04 02:00:00 16 6 Noroeste 12 Noroeste 0 1006.4 -1.5 89
2017-11-04 01:00:00 16.3 7 Noroeste 13 Oeste 0 1007 -1 89
2017-11-04 00:00:00 16.6 4 Noroeste 9 Noroeste 0 1007.5 -0.5 88
2017-11-03 23:00:00 17 4 Noroeste 10 Noroeste 0 1007.9 0.4 87
2017-11-03 22:00:00 17 5 Noroeste 12 Oeste 0 1008 0.6 86
2017-11-03 21:00:00 17.4 6 Noroeste 8 Noroeste 0 1008 0.9 85
2017-11-03 20:00:00 18.5 2 Norte 5 Norte 0 1007.5 0.5 84
2017-11-03 19:00:00 18.7 2 Nordeste 5 Nordeste 0 1007.4 0.2 83
2017-11-03 18:00:00 19.4 5 Este 12 Sur 0 1007.1 -0.1 79
2017-11-03 17:00:00 20.4 8 Sudeste 17 Sur 0 1007 -0.7 75
2017-11-03 16:00:00 21.5 11 Sur 21 Sur 0 1007.2 -1.2 68
2017-11-03 15:00:00 22.4 13 Sur 22 Sur 0 1007.2 -2 65
2017-11-03 14:00:00 23 11 Sur 24 Sur 0 1007.7 -2 61
2017-11-03 13:00:00 22.8 10 Sur 19 Sur 0 1008.4 -1.5 59
2017-11-03 12:00:00 22.2 7 Sur 14 Sudeste 0 1009.2 -0.5 61
2017-11-03 11:00:00 20.5 5 Oeste 18 Oeste 0 1009.7 0.5 67
2017-11-03 10:00:00 17.1 10 Oeste 16 Noroeste 0 1009.9 1.3 74
2017-11-03 09:00:00 16.3 10 Noroeste 23 Oeste 0 1009.7 0.2 76
2017-11-03 08:00:00 15.8 8 Oeste 20 Oeste 0 1009.2 -0.4 78
2017-11-03 07:00:00 15.7 5 Noroeste 15 Oeste 0 1008.6 -1.4 82
2017-11-03 06:00:00 16 9 Oeste 18 Oeste 0 1009.5 -0.9 80
2017-11-03 05:00:00 15.8 10 Oeste 17 Oeste 0 1009.6 -1.3 84
2017-11-03 04:00:00 15.7 11 Oeste 17 Oeste 0 1010 -1.3 85
2017-11-03 03:00:00 15.4 12 Oeste 17 Oeste 0 1010.4 -1.4 88
2017-11-03 02:00:00 15.8 8 Noroeste 15 Oeste 0 1010.9 -1.3 86
2017-11-03 01:00:00 15.8 8 Oeste 15 Noroeste 0 1011.3 -1 87
2017-11-03 00:00:00 16 8 Noroeste 13 Noroeste 0 1011.8 -0.6 85
2017-11-02 23:00:00 16.3 7 Noroeste 12 Noroeste 0 1012.2 -0.3 87
2017-11-02 22:00:00 17.3 9 Oeste 15 Oeste 0 1012.3 0.2 83
2017-11-02 21:00:00 17.9 4 Noroeste 7 Noroeste 0 1012.4 0.5 84
2017-11-02 20:00:00 18.3 2 Sudoeste 8 Sudoeste 0 1012.5 0.4 84
2017-11-02 19:00:00 18.7 2 Sudoeste 6 Sur 0 1012.1 0 83
2017-11-02 18:00:00 19.5 4 Sur 15 Sur 0 1011.9 -0.3 79
2017-11-02 17:00:00 20.2 9 Sur 19 Sur 0 1012.1 -0.6 74
2017-11-02 16:00:00 21.3 11 Sur 23 Sur 0 1012.1 -1.3 68
2017-11-02 15:00:00 22 13 Sur 23 Sudeste 0 1012.2 -2.2 62
2017-11-02 14:00:00 23.1 10 Sur 20 Sudeste 0 1012.7 -2.1 55
2017-11-02 13:00:00 23.2 8 Sur 17 Sudeste 0 1013.4 -1.7 58
2017-11-02 12:00:00 22.5 7 Sur 13 Sur 0 1014.4 -0.5 65
2017-11-02 11:00:00 20.1 4 Sur 11 Oeste 0 1014.8 0.5 72
2017-11-02 10:00:00 17.7 7 Oeste 20 Noroeste 0 1015.1 1 76
2017-11-02 09:00:00 15.6 14 Oeste 22 Oeste 0 1014.9 0.8 83
2017-11-02 08:00:00 15.2 11 Oeste 19 Noroeste 0 1014.3 0.1 86
2017-11-02 07:00:00 15.6 8 Oeste 15 Oeste 0 1014.1 -0.3 86
2017-11-02 06:00:00 15.9 8 Noroeste 16 Oeste 0 1014.1 -0.7 88
2017-11-02 05:00:00 16.2 6 Oeste 15 Noroeste 0 1014.2 -1 88
2017-11-02 04:00:00 16.6 6 Oeste 12 Noroeste 0 1014.4 -1.2 90
2017-11-02 03:00:00 17.1 7 Oeste 9 Oeste 0 1014.8 -1.2 91
2017-11-02 02:00:00 17.8 3 Noroeste 6 Norte 0 1015.2 -0.9 90
2017-11-02 01:00:00 18.3 4 Noroeste 7 Oeste 0 1015.6 -0.6 88
2017-11-02 00:00:00 18.7 3 Oeste 7 Oeste 0 1016 0 85
2017-11-01 23:00:00 18.8 4 Sudoeste 5 Sudoeste 0 1016.1 0.1 85
2017-11-01 22:00:00 18.9 2 Sudoeste 4 Sur 0 1016.2 0.5 83
2017-11-01 21:00:00 18.8 3 Noroeste 6 Oeste 0 1016 0.7 84
2017-11-01 20:00:00 18.6 2 Sur 5 Sudeste 0 1016 1 84
2017-11-01 19:00:00 18.7 0 Calma 6 Sur 0 1015.7 0.6 84
2017-11-01 18:00:00 19.5 5 Sur 15 Sur 0 1015.3 0.1 80
2017-11-01 17:00:00 20.5 10 Sur 19 Sur 0 1015 -0.7 73
2017-11-01 16:00:00 21.7 9 Sur 18 Sudeste 0 1015.1 -1.2 67
2017-11-01 15:00:00 22.2 9 Sudeste 20 Sur 0 1015.2 -1.8 65
2017-11-01 14:00:00 21.9 10 Sudeste 20 Este 0 1015.7 -1.9 69
2017-11-01 13:00:00 21.8 10 Sudeste 21 Este 0 1016.3 -1.4 68
2017-11-01 12:00:00 22 5 Sudeste 10 Sur 0 1017 -0.4 67
2017-11-01 11:00:00 19.6 3 Este 7 Este 0 1017.6 0.6 77
2017-11-01 10:00:00 17.4 3 Noroeste 10 Oeste 0 1017.7 1.6 83
2017-11-01 09:00:00 14.7 5 Noroeste 9 Oeste 0 1017.4 1.3 91
2017-11-01 08:00:00 14 9 Noroeste 12 Noroeste 0 1017 0.6 90
2017-11-01 07:00:00 14.5 6 Noroeste 11 Noroeste 0 1016.1 -0.3 88
2017-11-01 06:00:00 15.1 5 Noroeste 13 Oeste 0 1016.1 -0.5 88
2017-11-01 05:00:00 15.7 4 Oeste 8 Oeste 0 1016.4 -0.3 88
2017-11-01 04:00:00 16.3 5 Noroeste 11 Oeste 0 1016.4 -0.6 86
2017-11-01 03:00:00 15.9 4 Noroeste 11 Oeste 0 1016.6 -0.6 87
2017-11-01 02:00:00 16.1 3 Oeste 9 Noroeste 0 1016.7 -0.6 87
2017-11-01 01:00:00 16.4 4 Noroeste 11 Oeste 0 1017 -0.3 87
2017-11-01 00:00:00 16.7 5 Noroeste 7 Noroeste 0 1017.2 0 89
2017-10-31 23:00:00 17.1 4 Norte 8 Noroeste 0 1017.3 0.4 89
2017-10-31 22:00:00 17.4 3 Norte 8 Norte 0 1017.3 0.6 89
2017-10-31 21:00:00 17.1 3 Norte 7 Nordeste 0 1017.2 1 91
2017-10-31 20:00:00 16.9 3 Nordeste 7 Sudeste 0.4 1016.9 1.1 93
2017-10-31 19:00:00 17.1 4 Sudeste 13 Este 1.2 1016.7 1 94
2017-10-31 18:00:00 17.5 4 Nordeste 20 Nordeste 0.2 1016.2 0.2 92
2017-10-31 17:00:00 18.7 6 Nordeste 21 Este 0 1015.8 -0.2 75
2017-10-31 16:00:00 19 10 Nordeste 24 Este 0 1015.7 -0.6 72
2017-10-31 15:00:00 19.6 9 Este 23 Sudeste 0 1016 -0.7 66
2017-10-31 14:00:00 20 9 Este 24 Este 0 1016 -0.9 62
2017-10-31 13:00:00 19.8 8 Este 22 Este 0 1016.3 -0.5 62
2017-10-31 12:00:00 19.8 8 Este 21 Nordeste 0 1016.7 0.6 62
2017-10-31 11:00:00 19 5 Este 16 Este 0 1016.9 1.5 61
2017-10-31 10:00:00 18.6 6 Nordeste 13 Nordeste 0 1016.8 2.3 59
2017-10-31 09:00:00 16.2 3 Noroeste 9 Noroeste 0 1016.1 2 61
2017-10-31 08:00:00 15.4 5 Noroeste 12 Noroeste 0 1015.4 1.4 60
2017-10-31 07:00:00 15.5 5 Noroeste 12 Oeste 0 1014.5 1 57
2017-10-31 06:00:00 16.3 5 Noroeste 9 Noroeste 0 1014.1 0.5 54
2017-10-31 05:00:00 17 5 Oeste 10 Oeste 0 1014 0.2 53
2017-10-31 04:00:00 17.1 2 Noroeste 8 Noroeste 0 1013.5 -0.5 53
2017-10-31 03:00:00 17.5 5 Norte 10 Noroeste 0 1013.6 -0.5 53
2017-10-31 02:00:00 17.4 5 Norte 8 Norte 0 1013.8 -0.2 55
2017-10-31 01:00:00 17 4 Noroeste 9 Noroeste 0 1014 0.4 60
2017-10-31 00:00:00 16.3 4 Noroeste 8 Oeste 0 1014.1 1.1 77
2017-10-30 23:00:00 15.7 6 Oeste 10 Noroeste 0 1014 1.6 79
2017-10-30 22:00:00 15.7 5 Noroeste 9 Noroeste 0 1013.6 1.7 80
2017-10-30 21:00:00 16.4 4 Noroeste 7 Noroeste 0 1013 2 76
2017-10-30 20:00:00 17.8 3 Norte 4 Norte 0 1012.4 2.3 72
2017-10-30 19:00:00 18.4 2 Este 8 Sudeste 0 1011.9 2.1 70
2017-10-30 18:00:00 19.5 5 Este 18 Sudeste 0 1011 1.1 66
2017-10-30 17:00:00 20.7 9 Sur 21 Sur 0 1010.1 0 58
2017-10-30 16:00:00 22 10 Sur 23 Sur 0 1009.8 -0.8 54
2017-10-30 15:00:00 22.7 12 Sur 23 Sudeste 0 1009.9 -1.4 51
2017-10-30 14:00:00 23 12 Sudeste 22 Sudeste 0 1010.1 -1.6 45
2017-10-30 13:00:00 23.5 8 Sur 18 Sur 0 1010.6 -1.2 46
2017-10-30 12:00:00 22.6 5 Sudoeste 15 Oeste 0 1011.3 -0.5 45
2017-10-30 11:00:00 20.1 6 Oeste 17 Noroeste 0 1011.7 0.3 42
2017-10-30 10:00:00 17.9 11 Oeste 18 Oeste 0 1011.8 0.9 49
2017-10-30 09:00:00 14.2 10 Oeste 19 Oeste 0 1011.8 0.9 63
2017-10-30 08:00:00 12.2 11 Oeste 20 Oeste 0 1011.4 0.5 64
2017-10-30 07:00:00 12.1 11 Oeste 18 Oeste 0 1010.9 -0.1 65
2017-10-30 06:00:00 12.1 9 Noroeste 17 Oeste 0 1010.9 -0.4 67
2017-10-30 05:00:00 13.4 9 Oeste 19 Oeste 0 1010.9 -0.5 63
2017-10-30 04:00:00 13.9 13 Oeste 20 Oeste 0 1011 -0.6 63
2017-10-30 03:00:00 14.1 8 Noroeste 21 Oeste 0 1011.3 -0.4 65
2017-10-30 02:00:00 14.5 9 Noroeste 17 Oeste 0 1011.4 -0.8 67
2017-10-30 01:00:00 14.9 8 Noroeste 17 Oeste 0 1011.6 -0.9 71
2017-10-30 00:00:00 15.1 10 Oeste 18 Oeste 0 1011.7 -0.8 82
2017-10-29 23:00:00 15.3 10 Oeste 16 Oeste 0 1012.2 -0.3 86
2017-10-29 22:00:00 15.6 9 Noroeste 13 Noroeste 0 1012.5 -0.1 86
2017-10-29 21:00:00 16.3 6 Noroeste 8 Oeste 0 1012.5 0 83
2017-10-29 20:00:00 17.8 4 Noroeste 6 Noroeste 0 1012.5 0.2 80
2017-10-29 19:00:00 18.7 0 Calma 6 Este 0 1012.6 -0.1 79
2017-10-29 18:00:00 19.7 3 Sur 10 Sur 0 1012.5 -0.6 74
2017-10-29 17:00:00 21.1 8 Sur 17 Sur 0 1012.3 -1.6 67
2017-10-29 16:00:00 22.5 9 Sur 18 Sur 0 1012.7 -2 56
2017-10-29 15:00:00 23 9 Sur 19 Sur 0 1013.1 -2.7 56
2017-10-29 14:00:00 23.8 9 Sur 18 Sudeste 0 1013.9 -2.4 51
2017-10-29 13:00:00 23.4 10 Sudeste 16 Sudeste 0 1014.7 -2 47
2017-10-29 12:00:00 23.3 8 Sur 14 Sudeste 0 1015.8 -0.9 44
2017-10-29 11:00:00 20.8 4 Noroeste 12 Noroeste 0 1016.3 0.1 36
2017-10-29 10:00:00 18.5 6 Noroeste 20 Noroeste 0 1016.7 0.8 45
2017-10-29 09:00:00 15.5 13 Oeste 23 Oeste 0 1016.7 0.9 60
2017-10-29 08:00:00 13.8 10 Oeste 17 Oeste 0 1016.2 0.6 70
2017-10-29 07:00:00 13.8 11 Oeste 17 Oeste 0 1015.9 0.3 70
2017-10-29 06:00:00 13.9 9 Oeste 17 Noroeste 0 1015.8 -0.2 74
2017-10-29 05:00:00 14.4 10 Noroeste 21 Noroeste 0 1015.6 -1 73
2017-10-29 04:00:00 14.7 10 Oeste 17 Noroeste 0 1015.6 -1.4 74
2017-10-29 03:00:00 15.3 12 Oeste 18 Oeste 0 1016 -1.3 72
2017-10-29 02:00:00 15.2 9 Oeste 19 Oeste 0 1016.6 -1 77
2017-10-29 01:00:00 15.9 11 Oeste 18 Oeste 0 1017.3 -0.7 78
2017-10-29 00:00:00 16.1 8 Oeste 15 Oeste 0 1017.6 -0.4 80
2017-10-28 23:00:00 16.6 7 Oeste 10 Oeste 0 1017.8 0 82
2017-10-28 22:00:00 17.6 4 Noroeste 7 Noroeste 0 1018 0.6 77
2017-10-28 21:00:00 18.8 0 Calma 3 Norte 0 1018 0.9 74
2017-10-28 20:00:00 19.6 0 Calma 8 Sudeste 0 1017.8 0.7 70
2017-10-28 19:00:00 20.8 4 Sudeste 11 Este 0 1017.4 0.2 63
2017-10-28 18:00:00 22 6 Sur 15 Sur 0 1017.1 -0.6 59
2017-10-28 17:00:00 22.8 9 Sudeste 20 Sudeste 0 1017.1 -1.2 54
2017-10-28 16:00:00 23.4 9 Sudeste 19 Sudeste 0 1017.2 -1.7 51
2017-10-28 15:00:00 23.5 10 Sudeste 21 Sudeste 0 1017.7 -1.5 47
2017-10-28 14:00:00 23.7 9 Sudeste 21 Este 0 1018.3 -1.3 45
2017-10-28 13:00:00 24.1 8 Este 18 Este 0 1018.9 -0.6 43
2017-10-28 12:00:00 22.3 4 Noroeste 17 Oeste 0 1019.2 0.2 44
2017-10-28 11:00:00 19.6 11 Oeste 19 Oeste 0 1019.6 0.8 50
2017-10-28 10:00:00 16.6 9 Oeste 19 Oeste 0 1019.5 0.9 59
2017-10-28 09:00:00 15.3 11 Oeste 19 Oeste 0 1019 0.6 63
2017-10-28 08:00:00 15 10 Oeste 19 Noroeste 0 1018.8 0.4 64
2017-10-28 07:00:00 15.7 9 Noroeste 21 Oeste 0 1018.6 0.4 61
2017-10-28 06:00:00 17.4 13 Oeste 21 Oeste 0 1018.4 0 55
2017-10-28 05:00:00 16.3 4 Oeste 12 Oeste 0 1018.4 -0.1 62
2017-10-28 04:00:00 16.8 7 Noroeste 13 Noroeste 0 1018.2 -0.4 61
2017-10-28 03:00:00 16.6 5 Norte 19 Oeste 0 1018.4 -0.4 63
2017-10-28 02:00:00 17.2 7 Oeste 13 Oeste 0 1018.5 -0.1 62
2017-10-28 01:00:00 17.9 4 Noroeste 16 Oeste 0 1018.6 0.3 66
2017-10-28 00:00:00 17.9 7 Noroeste 17 Noroeste 0 1018.8 0.8 68
2017-10-27 23:00:00 18.7 5 Oeste 10 Oeste 0 1018.6 1.4 67
2017-10-27 22:00:00 20.3 4 Nordeste 7 Este 0 1018.3 2 80
2017-10-27 21:00:00 21.2 4 Este 13 Este 0 1018 2 75
2017-10-27 20:00:00 22.7 3 Nordeste 5 Norte 0 1017.2 1.1 42
2017-10-27 19:00:00 24.4 0 Calma 9 Este 0 1016.3 0 38
2017-10-27 18:00:00 26.2 8 Sur 19 Sur 0 1016 -1.1 36
2017-10-27 17:00:00 27.8 10 Sur 22 Sur 0 1016.1 -2.1 32
2017-10-27 16:00:00 28.4 11 Sur 19 Sur 0 1016.3 -2.8 34
2017-10-27 15:00:00 28.9 11 Sur 18 Sur 0 1017.1 -2.5 30
2017-10-27 14:00:00 28.8 7 Sudeste 15 Sudeste 0 1018.2 -1.8 34
2017-10-27 13:00:00 27.4 8 Sur 13 Sur 0 1019.1 -1.1 39
2017-10-27 12:00:00 24.7 8 Sudoeste 13 Sudoeste 0 1019.6 -0.3 44
2017-10-27 11:00:00 21.2 8 Oeste 14 Noroeste 0 1020 0.5 48
2017-10-27 10:00:00 17.1 5 Oeste 11 Noroeste 0 1020.2 0.5 66
2017-10-27 09:00:00 16.2 9 Oeste 15 Oeste 0 1019.9 0.2 65
2017-10-27 08:00:00 16.5 11 Oeste 17 Oeste 0 1019.5 -0.2 63
2017-10-27 07:00:00 15.4 7 Noroeste 13 Oeste 0 1019.7 -0.6 71
2017-10-27 06:00:00 15.3 5 Noroeste 14 Oeste 0 1019.7 -1.1 75
2017-10-27 05:00:00 15.7 9 Noroeste 17 Oeste 0 1019.7 -1.5 78
2017-10-27 04:00:00 16.1 9 Oeste 13 Oeste 0 1020.3 -1.1 76
2017-10-27 03:00:00 16.1 8 Oeste 19 Oeste 0 1020.8 -1 80
2017-10-27 02:00:00 16.5 6 Oeste 16 Oeste 0 1021.2 -0.7 82
2017-10-27 01:00:00 16.7 10 Oeste 15 Oeste 0 1021.4 -0.3 84
2017-10-27 00:00:00 16.4 6 Noroeste 14 Noroeste 0 1021.8 0.1 86
2017-10-26 23:00:00 16.6 5 Oeste 10 Oeste 0 1021.9 0.7 86
2017-10-26 22:00:00 17.5 4 Noroeste 9 Noroeste 0 1021.7 1 84
2017-10-26 21:00:00 18.9 4 Noroeste 7 Oeste 0 1021.7 1.4 83
2017-10-26 20:00:00 19.9 2 Noroeste 5 Sudoeste 0 1021.2 1.1 84
2017-10-26 19:00:00 21.3 3 Sudeste 10 Sudeste 0 1020.7 0.9 76
2017-10-26 18:00:00 22.5 7 Sudeste 15 Nordeste 0 1020.3 0.3 66
2017-10-26 17:00:00 23.4 7 Sudeste 16 Este 0 1020.1 -0.6 62
2017-10-26 16:00:00 24.2 7 Sudeste 14 Sudeste 0 1019.8 -1.2 59
2017-10-26 15:00:00 24.4 7 Sudeste 16 Sur 0 1020 -0.9 58
2017-10-26 14:00:00 24.5 9 Sudeste 16 Sur 0 1020.7 -0.1 58
2017-10-26 13:00:00 24.7 8 Sur 14 Sur 0 1021 0.3 54
2017-10-26 12:00:00 21.7 6 Sudeste 12 Sudeste 0 1020.9 0.7 59
2017-10-26 11:00:00 18.4 5 Noroeste 16 Noroeste 0 1020.8 0.8 66
2017-10-26 10:00:00 15.9 10 Oeste 15 Oeste 0 1020.7 1 79
2017-10-26 09:00:00 14.9 9 Noroeste 15 Oeste 0 1020.2 0.7 81
2017-10-26 08:00:00 14.6 9 Oeste 15 Oeste 0 1020 0.6 85
2017-10-26 07:00:00 14.5 8 Oeste 14 Oeste 0 1019.7 0.1 89
2017-10-26 06:00:00 14.9 8 Oeste 14 Oeste 0 1019.5 -0.1 89
2017-10-26 05:00:00 15.1 6 Noroeste 12 Noroeste 0 1019.4 -0.4 88
2017-10-26 04:00:00 15.3 5 Noroeste 15 Oeste 0 1019.6 -0.2 89
2017-10-26 03:00:00 15.6 9 Oeste 13 Oeste 0 1019.6 -0.3 90
2017-10-26 02:00:00 15.9 6 Noroeste 10 Noroeste 0 1019.8 0 88
2017-10-26 01:00:00 16.4 5 Noroeste 9 Noroeste 0 1019.8 0.3 90
2017-10-26 00:00:00 16.6 5 Noroeste 9 Noroeste 0 1019.9 0.7 91
2017-10-25 23:00:00 17.4 4 Noroeste 8 Noroeste 0 1019.8 0.9 91
2017-10-25 22:00:00 18.3 3 Noroeste 8 Noroeste 0 1019.5 1 90
2017-10-25 21:00:00 19.5 3 Noroeste 7 Noroeste 0 1019.2 1.2 90
2017-10-25 20:00:00 20.4 3 Nordeste 9 Sudeste 0 1018.9 1.2 86
2017-10-25 19:00:00 21.3 7 Este 14 Sudeste 0 1018.5 0.7 82
2017-10-25 18:00:00 22.3 8 Sudeste 15 Sudeste 0 1018 -0.1 78
2017-10-25 17:00:00 23.5 7 Este 15 Este 0 1017.7 -0.9 69
2017-10-25 16:00:00 23.8 8 Este 19 Este 0 1017.8 -1.1 66
2017-10-25 15:00:00 23.7 11 Este 20 Sudeste 0 1018.1 -0.9 64
2017-10-25 14:00:00 24.2 7 Este 17 Este 0 1018.6 -0.1 60
2017-10-25 13:00:00 23.8 7 Este 13 Sudeste 0 1018.9 0.6 62
2017-10-25 12:00:00 22 4 Sur 9 Este 0 1019 1.3 69
2017-10-25 11:00:00 19.1 3 Noroeste 9 Oeste 0 1018.7 1.4 79
2017-10-25 10:00:00 15.9 8 Oeste 13 Noroeste 0 1018.3 1.3 69
2017-10-25 09:00:00 14.4 8 Oeste 11 Noroeste 0 1017.7 0.9 71
2017-10-25 08:00:00 14.4 10 Oeste 15 Noroeste 0 1017.3 0.4 73
2017-10-25 07:00:00 14 10 Oeste 16 Noroeste 0 1017 -0.2 76
2017-10-25 06:00:00 14.4 8 Oeste 13 Noroeste 0 1016.8 -0.3 75
2017-10-25 05:00:00 14.7 8 Oeste 13 Noroeste 0 1016.9 -0.3 75
2017-10-25 04:00:00 14.6 9 Oeste 12 Noroeste 0 1017.2 -0.3 79
2017-10-25 03:00:00 14.9 7 Noroeste 14 Oeste 0 1017.1 -0.6 80
2017-10-25 02:00:00 15.2 5 Noroeste 13 Oeste 0 1017.2 -0.5 85
2017-10-25 01:00:00 15.9 6 Oeste 13 Noroeste 0 1017.5 0 81
2017-10-25 00:00:00 16.4 4 Noroeste 9 Noroeste 0 1017.7 0.2 83